Time;durP1;ratioP1;P1;durP2;ratioP2;P2;SDS_P1;SDS_P2;PMS_P1;PMS_P2;Temp;Humidity;BMP_temperature;BMP_pressure;BME280_temperature;BME280_humidity;BME280_pressure;Samples;Min_cycle;Max_cycle;Signal;HPM_P1;HPM_P2
2022/12/08 00:00:29;;;;;;;;;;;;;;;-0.81;100.00;100355.75;5551190;32;34245;-71
2022/12/08 00:03:36;;;;;;;;;;;;;;;-0.74;100.00;100354.44;5551202;32;34326;-71
2022/12/08 00:10:10;;;;;;;;;;;;;;;-0.70;100.00;100354.16;5551208;32;34362;-71
2022/12/08 00:13:36;;;;;;;;;;;;;;;-0.76;100.00;100346.72;5551206;32;34306;-71
2022/12/08 00:16:47;;;;;;;;;;;;;;;-0.76;100.00;100349.31;5551066;32;34263;-71
2022/12/08 00:19:54;;;;;;;;;;;;;;;-0.84;100.00;100343.75;5550174;32;34982;-71
2022/12/08 00:23:05;;;;;;;;;;;;;;;-0.82;100.00;100349.69;5551009;32;34405;-71
2022/12/08 00:26:11;;;;;;;;;;;;;;;-0.79;100.00;100343.47;5550362;32;34110;-71
2022/12/08 00:29:22;;;;;;;;;;;;;;;-0.82;100.00;100344.47;5550114;32;34707;-71
2022/12/08 00:32:28;;;;;;;;;;;;;;;-0.74;100.00;100355.28;5550958;32;34222;-72
2022/12/08 00:35:37;;;;;;;;;;;;;;;-0.68;100.00;100354.91;5550943;32;34729;-70
2022/12/08 00:38:49;;;;;;;;;;;;;;;-0.38;100.00;100353.84;5549629;32;34249;-71
2022/12/08 00:42:11;;;;;;;;;;;;;;;-0.27;100.00;100365.25;5550522;32;34831;-71
2022/12/08 00:45:16;;;;;;;;;;;;;;;-0.28;100.00;100365.34;5550954;32;34642;-71
2022/12/08 00:48:24;;;;;;;;;;;;;;;-0.32;100.00;100362.13;5537640;32;32744;-71
2022/12/08 00:51:30;;;;;;;;;;;;;;;-0.32;100.00;100358.66;5550641;32;35025;-71
2022/12/08 00:54:38;;;;;;;;;;;;;;;-0.28;100.00;100366.19;5550025;32;34239;-71
2022/12/08 00:57:45;;;;;;;;;;;;;;;-0.22;100.00;100371.00;5550608;32;34936;-71
2022/12/08 01:00:54;;;;;;;;;;;;;;;-0.15;100.00;100374.91;5549938;32;33285;-71
2022/12/08 01:04:04;;;;;;;;;;;;;;;-0.11;100.00;100365.09;5549839;32;34034;-72
2022/12/08 01:07:11;;;;;;;;;;;;;;;-0.10;100.00;100362.37;5550537;32;34052;-71
2022/12/08 01:10:19;;;;;;;;;;;;;;;-0.17;100.00;100355.91;5551823;31;34888;-71
2022/12/08 01:13:28;;;;;;;;;;;;;;;-0.26;100.00;100372.16;5589935;31;34546;-71
2022/12/08 01:16:37;;;;;;;;;;;;;;;-0.33;100.00;100367.41;5575686;31;34442;-71
2022/12/08 01:19:48;;;;;;;;;;;;;;;-0.37;100.00;100364.19;5589498;31;34238;-72
2022/12/08 01:22:57;;;;;;;;;;;;;;;-0.44;100.00;100373.34;5589499;31;34999;-71
2022/12/08 01:26:06;;;;;;;;;;;;;;;-0.54;100.00;100362.66;5589493;31;34847;-71
2022/12/08 01:29:11;;;;;;;;;;;;;;;-0.64;100.00;100361.59;5575708;31;34440;-71
2022/12/08 01:32:18;;;;;;;;;;;;;;;-0.74;100.00;100367.47;5589273;31;34389;-71
2022/12/08 01:35:23;;;;;;;;;;;;;;;-0.84;100.00;100363.75;5589415;31;34299;-72
2022/12/08 01:38:32;;;;;;;;;;;;;;;-0.87;100.00;100360.41;5589224;31;35091;-71
2022/12/08 01:41:39;;;;;;;;;;;;;;;-0.89;100.00;100361.44;5563387;31;34912;-71
2022/12/08 01:44:52;;;;;;;;;;;;;;;-0.99;100.00;100355.97;5575620;31;34135;-72
2022/12/08 01:48:01;;;;;;;;;;;;;;;-1.09;100.00;100367.03;5589010;31;34986;-72
2022/12/08 01:51:08;;;;;;;;;;;;;;;-1.18;100.00;100362.41;5591555;31;34285;-70
2022/12/08 01:54:18;;;;;;;;;;;;;;;-1.28;100.00;100354.31;5591311;31;34415;-69
2022/12/08 01:57:27;;;;;;;;;;;;;;;-1.26;100.00;100351.63;5591598;31;34783;-72
2022/12/08 02:00:34;;;;;;;;;;;;;;;-1.37;100.00;100357.47;5591443;31;34893;-72
2022/12/08 02:03:42;;;;;;;;;;;;;;;-1.19;100.00;100352.91;5591245;31;34925;-71
2022/12/08 02:06:49;;;;;;;;;;;;;;;-1.33;100.00;100354.59;5577092;31;33142;-70
2022/12/08 02:09:58;;;;;;;;;;;;;;;-1.43;100.00;100347.44;5591308;31;35006;-70
2022/12/08 02:13:07;;;;;;;;;;;;;;;-1.50;100.00;100344.38;5591254;31;34217;-72
2022/12/08 02:16:31;;;;;;;;;;;;;;;-1.60;100.00;100342.44;5577758;31;34968;-70
2022/12/08 02:19:43;;;;;;;;;;;;;;;-1.69;100.00;100336.00;5591271;31;34238;-70
2022/12/08 02:23:04;;;;;;;;;;;;;;;-1.71;100.00;100340.47;5591344;31;34300;-71
2022/12/08 02:26:11;;;;;;;;;;;;;;;-1.79;100.00;100343.50;5591145;31;34547;-71
2022/12/08 02:29:34;;;;;;;;;;;;;;;-1.74;100.00;100332.81;5591080;31;34607;-70
2022/12/08 02:32:59;;;;;;;;;;;;;;;-1.44;100.00;100324.94;5591461;31;34781;-71
2022/12/08 02:36:11;;;;;;;;;;;;;;;-1.25;100.00;100320.28;5591339;31;34848;-71
2022/12/08 02:39:17;;;;;;;;;;;;;;;-1.22;100.00;100322.72;5591034;31;34327;-71
2022/12/08 02:42:29;;;;;;;;;;;;;;;-1.05;100.00;100321.66;5591117;31;34214;-70
2022/12/08 02:45:43;;;;;;;;;;;;;;;-0.87;100.00;100329.16;5576693;31;34544;-71
2022/12/08 02:48:50;;;;;;;;;;;;;;;-0.87;100.00;100325.72;5590806;31;34668;-70
2022/12/08 02:52:04;;;;;;;;;;;;;;;-0.91;100.00;100327.69;5590944;31;34945;-70
2022/12/08 02:55:21;;;;;;;;;;;;;;;-0.92;100.00;100320.78;5590927;31;34292;-70
2022/12/08 02:58:27;;;;;;;;;;;;;;;-0.91;100.00;100327.69;5590629;31;34427;-70
2022/12/08 03:01:43;;;;;;;;;;;;;;;-0.89;100.00;100311.97;5590182;31;34803;-70
2022/12/08 03:05:06;;;;;;;;;;;;;;;-0.85;100.00;100310.84;5590796;31;34864;-71
2022/12/08 03:08:21;;;;;;;;;;;;;;;-0.80;100.00;100300.12;5590684;31;34270;-70
2022/12/08 03:11:34;;;;;;;;;;;;;;;-0.77;100.00;100303.34;5590559;31;34420;-70
2022/12/08 03:14:46;;;;;;;;;;;;;;;-0.79;100.00;100307.00;5590766;31;34826;-70
2022/12/08 03:17:56;;;;;;;;;;;;;;;-0.71;100.00;100299.53;5590736;31;34905;-71
2022/12/08 03:21:06;;;;;;;;;;;;;;;-0.67;100.00;100301.00;5577815;31;34318;-70
2022/12/08 03:24:14;;;;;;;;;;;;;;;-0.73;100.00;100306.62;5590677;31;34276;-71
2022/12/08 03:27:21;;;;;;;;;;;;;;;-0.74;100.00;100308.41;5590626;31;34925;-70
2022/12/08 03:30:29;;;;;;;;;;;;;;;-0.73;100.00;100307.47;5590758;31;35089;-71
2022/12/08 03:33:39;;;;;;;;;;;;;;;-0.70;100.00;100309.03;5590677;31;34443;-70
2022/12/08 03:36:47;;;;;;;;;;;;;;;-0.65;100.00;100305.19;5590604;31;34265;-71
2022/12/08 03:39:54;;;;;;;;;;;;;;;-0.68;100.00;100308.00;5590529;31;35045;-71
2022/12/08 03:43:00;;;;;;;;;;;;;;;-0.57;100.00;100307.28;5590536;31;34996;-71
2022/12/08 03:46:09;;;;;;;;;;;;;;;-0.52;100.00;100306.06;5590556;31;34064;-71
2022/12/08 03:49:17;;;;;;;;;;;;;;;-0.45;100.00;100304.75;5576927;31;33405;-71
2022/12/08 03:52:25;;;;;;;;;;;;;;;-0.41;100.00;100307.16;5590406;31;34875;-71
2022/12/08 03:55:31;;;;;;;;;;;;;;;-0.39;100.00;100316.53;5577190;31;34306;-71
2022/12/08 03:58:41;;;;;;;;;;;;;;;-0.35;100.00;100304.97;5590359;31;34450;-71
2022/12/08 04:01:50;;;;;;;;;;;;;;;-0.28;100.00;100305.41;5577130;31;34847;-72
2022/12/08 04:04:59;;;;;;;;;;;;;;;-0.30;100.00;100294.25;5590263;31;34311;-71
2022/12/08 04:08:07;;;;;;;;;;;;;;;-0.25;100.00;100294.78;5560043;31;946812;-71
2022/12/08 04:11:18;;;;;;;;;;;;;;;-0.03;100.00;100295.00;5590021;31;34175;-71
2022/12/08 04:14:24;;;;;;;;;;;;;;;0.10;100.00;100301.06;5576387;31;35006;-71
2022/12/08 04:17:33;;;;;;;;;;;;;;;0.01;100.00;100293.88;5590169;31;34296;-71
2022/12/08 04:20:40;;;;;;;;;;;;;;;-0.07;100.00;100286.56;5590180;31;34295;-71
2022/12/08 04:23:49;;;;;;;;;;;;;;;-0.09;100.00;100288.44;5590234;31;34227;-71
2022/12/08 04:27:02;;;;;;;;;;;;;;;-0.03;100.00;100280.22;5577519;31;34668;-72
2022/12/08 04:30:06;;;;;;;;;;;;;;;0.03;100.00;100280.75;5576222;31;32752;-71
2022/12/08 04:33:12;;;;;;;;;;;;;;;0.06;100.00;100280.50;5589958;31;34958;-71
2022/12/08 04:36:19;;;;;;;;;;;;;;;0.06;100.00;100285.72;5590039;31;34721;-71
2022/12/08 04:39:27;;;;;;;;;;;;;;;0.05;100.00;100286.69;5576639;31;34842;-71
2022/12/08 04:42:34;;;;;;;;;;;;;;;0.08;100.00;100286.47;5589963;31;34334;-71
2022/12/08 04:45:41;;;;;;;;;;;;;;;0.00;100.00;100285.22;5589753;31;34353;-71
2022/12/08 04:48:50;;;;;;;;;;;;;;;0.12;100.00;100282.72;5589833;31;34804;-72
2022/12/08 04:51:59;;;;;;;;;;;;;;;0.06;100.00;100283.97;5576740;31;34403;-72
2022/12/08 04:55:06;;;;;;;;;;;;;;;0.08;100.00;100281.25;5576628;31;34190;-73
2022/12/08 04:58:12;;;;;;;;;;;;;;;0.29;100.00;100285.03;5589810;31;34238;-72
2022/12/08 05:01:18;;;;;;;;;;;;;;;0.25;100.00;100281.78;5589988;31;34207;-71
2022/12/08 05:04:24;;;;;;;;;;;;;;;0.19;100.00;100279.59;5589664;31;34416;-71
2022/12/08 05:07:33;;;;;;;;;;;;;;;0.26;100.00;100273.00;5589639;31;34340;-72
2022/12/08 05:10:39;;;;;;;;;;;;;;;0.19;100.00;100281.37;5589323;31;34737;-72
2022/12/08 05:13:48;;;;;;;;;;;;;;;0.18;100.00;100282.31;5575466;31;33121;-72
2022/12/08 05:16:57;;;;;;;;;;;;;;;0.14;100.00;100292.13;5576369;31;34913;-72
2022/12/08 05:20:09;;;;;;;;;;;;;;;0.18;100.00;100292.75;5576685;31;34939;-72
2022/12/08 05:23:15;;;;;;;;;;;;;;;0.15;100.00;100280.72;5588588;31;34838;-72
2022/12/08 05:26:22;;;;;;;;;;;;;;;0.22;100.00;100288.97;5589427;31;34811;-72
2022/12/08 05:29:26;;;;;;;;;;;;;;;0.25;100.00;100293.97;5589305;31;34027;-72
2022/12/08 05:32:33;;;;;;;;;;;;;;;0.20;100.00;100286.47;5589312;31;34907;-72
2022/12/08 05:35:40;;;;;;;;;;;;;;;0.24;100.00;100282.72;5574993;31;34814;-72
2022/12/08 05:38:49;;;;;;;;;;;;;;;0.36;100.00;100286.25;5575768;31;34714;-72
2022/12/08 05:41:56;;;;;;;;;;;;;;;0.47;100.00;100267.25;5589059;31;34843;-72
2022/12/08 05:45:03;;;;;;;;;;;;;;;0.43;100.00;100266.66;5588937;31;34566;-71
2022/12/08 05:48:08;;;;;;;;;;;;;;;0.28;100.00;100272.91;5574679;31;34315;-72
2022/12/08 05:51:22;;;;;;;;;;;;;;;0.35;100.00;100259.34;5588768;31;35520;-72
2022/12/08 05:54:29;;;;;;;;;;;;;;;0.44;100.00;100256.09;5589254;31;34833;-72
2022/12/08 05:57:33;;;;;;;;;;;;;;;0.37;100.00;100256.63;5588753;31;35033;-71
2022/12/08 06:00:39;;;;;;;;;;;;;;;0.28;100.00;100263.31;5588462;31;34508;-72
2022/12/08 06:03:44;;;;;;;;;;;;;;;0.22;100.00;100281.16;5575063;31;34764;-72
2022/12/08 06:06:48;;;;;;;;;;;;;;;0.27;100.00;100273.84;5588332;31;34599;-71
2022/12/08 06:09:53;;;;;;;;;;;;;;;0.28;100.00;100280.75;5574507;31;34508;-71
2022/12/08 06:12:57;;;;;;;;;;;;;;;0.18;100.00;100277.94;5588367;31;34862;-71
2022/12/08 06:16:04;;;;;;;;;;;;;;;0.16;100.00;100281.56;5588331;31;34665;-73
2022/12/08 06:19:09;;;;;;;;;;;;;;;0.17;100.00;100283.25;5588259;31;34799;-72
2022/12/08 06:22:14;;;;;;;;;;;;;;;0.24;100.00;100300.16;5588187;31;34252;-72
2022/12/08 06:25:19;;;;;;;;;;;;;;;0.31;100.00;100291.81;5588295;31;34307;-72
2022/12/08 06:28:24;;;;;;;;;;;;;;;0.39;100.00;100291.25;5573934;31;32567;-72
2022/12/08 06:31:30;;;;;;;;;;;;;;;0.38;100.00;100298.28;5588205;31;33780;-72
2022/12/08 06:34:34;;;;;;;;;;;;;;;0.46;100.00;100294.28;5588623;31;34894;-71
2022/12/08 06:37:39;;;;;;;;;;;;;;;0.53;100.00;100301.63;5590926;31;34471;-73
2022/12/08 06:40:44;;;;;;;;;;;;;;;0.53;100.00;100298.16;5577070;31;34802;-72
2022/12/08 06:43:46;;;;;;;;;;;;;;;0.68;100.00;100291.84;5590918;31;34287;-72
2022/12/08 06:46:49;;;;;;;;;;;;;;;0.61;100.00;100295.84;5590754;31;34303;-73
2022/12/08 06:49:53;;;;;;;;;;;;;;;0.58;100.00;100296.06;5590434;31;34223;-72
2022/12/08 06:52:57;;;;;;;;;;;;;;;0.68;100.00;100297.06;5576854;31;34969;-72
2022/12/08 06:56:07;;;;;;;;;;;;;;;0.73;100.00;100292.38;5591402;31;34308;-72
2022/12/08 06:59:11;;;;;;;;;;;;;;;0.73;100.00;100297.59;5590031;31;34279;-73
2022/12/08 07:02:14;;;;;;;;;;;;;;;0.80;100.00;100301.44;5590188;31;34220;-72
2022/12/08 07:05:18;;;;;;;;;;;;;;;1.10;100.00;100307.12;5576443;31;32744;-72
2022/12/08 07:08:23;;;;;;;;;;;;;;;1.10;100.00;100304.50;5589677;31;35248;-72
2022/12/08 07:11:29;;;;;;;;;;;;;;;0.98;100.00;100307.16;5590379;31;34817;-72
2022/12/08 07:14:32;;;;;;;;;;;;;;;1.22;100.00;100308.00;5576458;31;34527;-73
2022/12/08 07:17:35;;;;;;;;;;;;;;;1.14;100.00;100298.13;5576464;31;32921;-73
2022/12/08 07:20:38;;;;;;;;;;;;;;;1.25;100.00;100299.97;5590395;31;34305;-74
2022/12/08 07:23:42;;;;;;;;;;;;;;;1.18;100.00;100296.94;5590370;31;34073;-73
2022/12/08 07:26:45;;;;;;;;;;;;;;;1.25;100.00;100295.59;5576442;31;34786;-73
2022/12/08 07:29:49;;;;;;;;;;;;;;;1.27;100.00;100304.13;5589579;31;34344;-73
2022/12/08 07:32:53;;;;;;;;;;;;;;;1.17;100.00;100303.12;5576316;31;34857;-73
2022/12/08 07:35:58;;;;;;;;;;;;;;;1.18;100.00;100294.34;5576401;31;32898;-73
2022/12/08 07:39:01;;;;;;;;;;;;;;;1.14;100.00;100299.91;5576053;31;34413;-73
2022/12/08 07:42:04;;;;;;;;;;;;;;;1.26;100.00;100285.94;5590010;31;34929;-71
2022/12/08 07:45:08;;;;;;;;;;;;;;;1.33;100.00;100294.19;5576702;31;34371;-72
2022/12/08 07:48:12;;;;;;;;;;;;;;;1.18;100.00;100301.34;5589684;31;35061;-73
2022/12/08 07:51:15;;;;;;;;;;;;;;;1.22;100.00;100290.56;5590107;31;34732;-72
2022/12/08 07:54:19;;;;;;;;;;;;;;;1.19;100.00;100292.56;5590005;31;34355;-72
2022/12/08 07:57:23;;;;;;;;;;;;;;;1.39;100.00;100291.13;5589979;31;34844;-72
2022/12/08 08:00:27;;;;;;;;;;;;;;;1.60;100.00;100289.53;5589939;31;34100;-72
2022/12/08 08:03:35;;;;;;;;;;;;;;;1.72;100.00;100294.72;5589890;31;34741;-72
2022/12/08 08:06:39;;;;;;;;;;;;;;;1.92;100.00;100284.53;5576271;31;34345;-72
2022/12/08 08:09:44;;;;;;;;;;;;;;;1.77;100.00;100291.75;5575617;31;32911;-72
2022/12/08 08:12:48;;;;;;;;;;;;;;;1.67;100.00;100290.75;5575824;31;34167;-72
2022/12/08 08:15:54;;;;;;;;;;;;;;;1.90;100.00;100292.50;5590243;31;34833;-72
2022/12/08 08:18:58;;;;;;;;;;;;;;;2.09;100.00;100292.78;5589701;31;34154;-73
2022/12/08 08:22:01;;;;;;;;;;;;;;;2.14;100.00;100295.03;5575797;31;34721;-72
2022/12/08 08:25:06;;;;;;;;;;;;;;;2.42;100.00;100297.22;5589757;31;34869;-73
2022/12/08 08:28:10;;;;;;;;;;;;;;;2.46;100.00;100293.44;5576008;31;35775;-72
2022/12/08 08:31:13;;;;;;;;;;;;;;;2.55;100.00;100282.25;5562981;31;34089;-72
2022/12/08 08:34:16;;;;;;;;;;;;;;;2.64;100.00;100280.69;5575574;31;34969;-72
2022/12/08 08:37:19;;;;;;;;;;;;;;;2.46;100.00;100287.38;5575495;31;34900;-73
2022/12/08 08:40:24;;;;;;;;;;;;;;;2.73;100.00;100290.44;5576609;31;35215;-72
2022/12/08 08:43:28;;;;;;;;;;;;;;;2.77;100.00;100294.50;5589979;31;34471;-72
2022/12/08 08:46:41;;;;;;;;;;;;;;;2.86;100.00;100285.91;5589669;31;34992;-73
2022/12/08 08:49:46;;;;;;;;;;;;;;;2.75;100.00;100285.94;5589393;31;35533;-72
2022/12/08 08:52:50;;;;;;;;;;;;;;;2.57;100.00;100280.34;5576054;31;35016;-72
2022/12/08 08:55:55;;;;;;;;;;;;;;;2.74;100.00;100291.28;5576002;31;34176;-72
2022/12/08 08:59:02;;;;;;;;;;;;;;;3.00;100.00;100285.66;5574011;31;33005;-72
2022/12/08 09:02:14;;;;;;;;;;;;;;;2.92;100.00;100289.84;5589313;31;34512;-72
2022/12/08 09:05:19;;;;;;;;;;;;;;;2.98;100.00;100279.72;5589268;31;34252;-72
2022/12/08 09:08:22;;;;;;;;;;;;;;;3.11;100.00;100263.00;5589316;31;34853;-72
2022/12/08 09:11:28;;;;;;;;;;;;;;;3.47;100.00;100271.34;5589041;31;35031;-71
2022/12/08 09:14:31;;;;;;;;;;;;;;;3.69;100.00;100269.56;5575609;31;34276;-72
2022/12/08 09:17:37;;;;;;;;;;;;;;;3.73;100.00;100284.09;5589356;31;34276;-72
2022/12/08 09:20:41;;;;;;;;;;;;;;;3.49;100.00;100279.91;5575185;31;33288;-73
2022/12/08 09:23:45;;;;;;;;;;;;;;;3.48;100.00;100264.31;5562419;31;35264;-72
2022/12/08 09:26:48;;;;;;;;;;;;;;;3.06;100.00;100251.09;5575110;31;34175;-72
2022/12/08 09:29:52;;;;;;;;;;;;;;;3.41;100.00;100248.25;5575008;31;33429;-72
2022/12/08 09:32:55;;;;;;;;;;;;;;;3.19;100.00;100260.59;5588539;31;34343;-72
2022/12/08 09:36:02;;;;;;;;;;;;;;;3.30;100.00;100266.63;5574680;31;35209;-72
2022/12/08 09:39:05;;;;;;;;;;;;;;;3.31;100.00;100264.84;5588844;31;34990;-72
2022/12/08 09:42:09;;;;;;;;;;;;;;;3.14;100.00;100254.91;5588573;31;34556;-72
2022/12/08 09:45:13;;;;;;;;;;;;;;;3.08;100.00;100255.38;5574558;31;34592;-72
2022/12/08 09:48:22;;;;;;;;;;;;;;;3.23;100.00;100244.50;5588719;31;34886;-71
2022/12/08 09:51:33;;;;;;;;;;;;;;;3.18;100.00;100241.44;5588516;31;34947;-71
2022/12/08 09:54:36;;;;;;;;;;;;;;;3.13;100.00;100233.09;5574522;31;34987;-71
2022/12/08 09:57:38;;;;;;;;;;;;;;;3.03;100.00;100224.31;5588441;31;34549;-73
2022/12/08 10:00:41;;;;;;;;;;;;;;;3.11;100.00;100210.56;5588148;31;34934;-72
2022/12/08 10:03:45;;;;;;;;;;;;;;;3.34;100.00;100214.81;5588327;31;34921;-72
2022/12/08 10:06:56;;;;;;;;;;;;;;;3.54;100.00;100205.25;5574213;31;32745;-72
2022/12/08 10:09:59;;;;;;;;;;;;;;;3.64;100.00;100217.50;5589078;31;34986;-72
2022/12/08 10:13:14;;;;;;;;;;;;;;;3.78;100.00;100227.66;5590769;31;34709;-72
2022/12/08 10:16:31;;;;;;;;;;;;;;;4.02;100.00;100226.59;5591228;31;34745;-71
2022/12/08 10:19:34;;;;;;;;;;;;;;;4.21;100.00;100234.56;5590900;31;34934;-72
2022/12/08 10:22:37;;;;;;;;;;;;;;;4.25;100.00;100238.59;5590695;31;34256;-72
2022/12/08 10:25:47;;;;;;;;;;;;;;;4.18;100.00;100232.19;5576852;31;35109;-72
2022/12/08 10:28:50;;;;;;;;;;;;;;;3.91;100.00;100220.44;5591039;31;34980;-72
2022/12/08 10:31:55;;;;;;;;;;;;;;;4.13;100.00;100213.37;5590682;31;34973;-72
2022/12/08 10:35:17;;;;;;;;;;;;;;;3.99;100.00;100219.78;5590732;31;34549;-71
2022/12/08 10:38:22;;;;;;;;;;;;;;;3.99;100.00;100208.47;5590870;31;34813;-73
2022/12/08 10:41:28;;;;;;;;;;;;;;;4.24;100.00;100194.91;5590853;31;34365;-72
2022/12/08 10:44:32;;;;;;;;;;;;;;;4.34;100.00;100187.91;5590621;31;34565;-73
2022/12/08 10:47:39;;;;;;;;;;;;;;;4.37;100.00;100177.13;5592605;31;34899;-74
2022/12/08 10:50:52;;;;;;;;;;;;;;;3.98;100.00;100172.66;5591642;31;34775;-73
2022/12/08 10:53:56;;;;;;;;;;;;;;;4.27;100.00;100171.00;5576925;31;35970;-72
2022/12/08 10:57:01;;;;;;;;;;;;;;;4.73;100.00;100162.56;5590454;31;34353;-73
2022/12/08 11:00:06;;;;;;;;;;;;;;;4.99;100.00;100162.84;5551008;31;32818;-72
2022/12/08 11:03:27;;;;;;;;;;;;;;;5.06;100.00;100153.47;5590492;31;34800;-72
2022/12/08 11:06:34;;;;;;;;;;;;;;;4.89;100.00;100151.53;5563876;31;33664;-71
2022/12/08 11:09:47;;;;;;;;;;;;;;;4.85;100.00;100147.50;5577242;31;34314;-72
2022/12/08 11:12:51;;;;;;;;;;;;;;;4.87;100.00;100143.78;5576278;31;34640;-71
2022/12/08 11:15:56;;;;;;;;;;;;;;;4.99;100.00;100134.78;5590803;31;34881;-72
2022/12/08 11:19:05;;;;;;;;;;;;;;;5.20;100.00;100139.91;5590404;31;34766;-72
2022/12/08 11:22:28;;;;;;;;;;;;;;;5.15;100.00;100132.44;5589608;31;34616;-72
2022/12/08 11:25:32;;;;;;;;;;;;;;;4.43;100.00;100131.13;5576336;31;34128;-72
2022/12/08 11:28:37;;;;;;;;;;;;;;;4.41;100.00;100118.09;5576637;31;34325;-73
2022/12/08 11:31:48;;;;;;;;;;;;;;;4.67;100.00;100113.19;5590211;31;34903;-72
2022/12/08 11:34:54;;;;;;;;;;;;;;;4.81;100.00;100099.62;5590087;31;35112;-72
2022/12/08 11:38:02;;;;;;;;;;;;;;;4.94;100.00;100108.06;5589843;31;34269;-72
2022/12/08 11:41:28;;;;;;;;;;;;;;;5.03;100.00;100088.88;5578171;31;35025;-72
2022/12/08 11:44:44;;;;;;;;;;;;;;;4.86;100.00;100086.91;5576158;31;34727;-71
2022/12/08 11:47:51;;;;;;;;;;;;;;;4.35;100.00;100071.41;5589812;31;34520;-71
2022/12/08 11:51:04;;;;;;;;;;;;;;;4.32;100.00;100055.91;5590096;31;34088;-71
2022/12/08 11:54:12;;;;;;;;;;;;;;;4.47;100.00;100051.06;5590084;31;34980;-72
2022/12/08 11:57:19;;;;;;;;;;;;;;;4.51;100.00;100049.81;5589901;31;34517;-73
2022/12/08 12:00:23;;;;;;;;;;;;;;;4.36;100.00;100047.59;5589760;31;34627;-72
2022/12/08 12:03:36;;;;;;;;;;;;;;;4.55;100.00;100056.50;5576133;31;34290;-72
2022/12/08 12:06:59;;;;;;;;;;;;;;;4.33;100.00;100053.13;5576137;31;34260;-72
2022/12/08 12:10:16;;;;;;;;;;;;;;;4.37;100.00;100041.38;5576265;31;34370;-72
2022/12/08 12:13:33;;;;;;;;;;;;;;;4.66;100.00;100049.28;5590309;31;34174;-71
2022/12/08 12:16:44;;;;;;;;;;;;;;;4.26;100.00;100052.00;5577403;31;35094;-71
2022/12/08 12:19:48;;;;;;;;;;;;;;;4.41;100.00;100056.88;5589738;31;35169;-72
2022/12/08 12:22:55;;;;;;;;;;;;;;;4.28;100.00;100052.72;5576347;31;34913;-73
2022/12/08 12:26:00;;;;;;;;;;;;;;;4.22;100.00;100058.50;5575470;31;34676;-72
2022/12/08 12:29:05;;;;;;;;;;;;;;;4.38;100.00;100055.34;5589870;31;34216;-72
2022/12/08 12:32:09;;;;;;;;;;;;;;;4.08;100.00;100047.56;5589499;31;34229;-72
2022/12/08 12:35:14;;;;;;;;;;;;;;;3.87;100.00;100053.69;5575932;31;34234;-72
2022/12/08 12:41:56;;;;;;;;;;;;;;;4.00;100.00;100056.09;5575720;31;33906;-72
2022/12/08 12:45:10;;;;;;;;;;;;;;;4.12;100.00;100054.19;5576119;31;34386;-72
2022/12/08 12:48:20;;;;;;;;;;;;;;;4.06;100.00;100054.75;5575689;31;34126;-72
2022/12/08 12:51:34;;;;;;;;;;;;;;;3.99;100.00;100054.44;5575890;31;34538;-71
2022/12/08 12:54:40;;;;;;;;;;;;;;;4.14;100.00;100062.78;5589648;31;34184;-72
2022/12/08 12:57:51;;;;;;;;;;;;;;;4.19;100.00;100052.69;5575903;31;33662;-72
2022/12/08 13:01:07;;;;;;;;;;;;;;;4.19;100.00;100045.66;5589748;31;34790;-71
2022/12/08 13:04:11;;;;;;;;;;;;;;;4.16;100.00;100035.44;5589554;31;34421;-72
2022/12/08 13:07:21;;;;;;;;;;;;;;;4.32;100.00;100030.47;5589410;31;34881;-72
2022/12/08 13:10:24;;;;;;;;;;;;;;;4.23;100.00;100030.44;5575647;31;34311;-72
2022/12/08 13:13:28;;;;;;;;;;;;;;;3.99;100.00;100037.84;5589473;31;34663;-71
2022/12/08 13:16:33;;;;;;;;;;;;;;;3.81;100.00;100035.06;5562537;31;35273;-71
2022/12/08 13:19:37;;;;;;;;;;;;;;;3.58;100.00;100033.59;5562559;31;34890;-72
2022/12/08 13:23:00;;;;;;;;;;;;;;;3.47;100.00;100030.09;5589178;31;34654;-72
2022/12/08 13:26:08;;;;;;;;;;;;;;;3.62;100.00;100021.88;5589542;31;34203;-72
2022/12/08 13:29:14;;;;;;;;;;;;;;;3.61;100.00;100022.81;5575689;31;34220;-72
2022/12/08 13:32:39;;;;;;;;;;;;;;;3.66;100.00;100013.59;5589118;31;34850;-72
2022/12/08 13:36:15;;;;;;;;;;;;;;;3.62;100.00;100019.25;5589038;31;34372;-71
2022/12/08 13:39:23;;;;;;;;;;;;;;;3.49;100.00;100022.91;5588816;31;34188;-71
2022/12/08 13:42:46;;;;;;;;;;;;;;;3.56;100.00;100025.84;5589018;31;34816;-72
2022/12/08 13:45:51;;;;;;;;;;;;;;;3.49;100.00;100032.56;5590449;31;34391;-71
2022/12/08 13:49:16;;;;;;;;;;;;;;;3.39;100.00;100036.94;5579942;31;34923;-71
2022/12/08 13:52:53;;;;;;;;;;;;;;;3.44;100.00;100032.97;5566654;31;34306;-71
2022/12/08 13:56:18;;;;;;;;;;;;;;;3.35;100.00;100030.28;5577013;31;34872;-72
2022/12/08 13:59:43;;;;;;;;;;;;;;;3.37;100.00;100023.97;5590727;31;34383;-72
2022/12/08 14:02:48;;;;;;;;;;;;;;;3.38;100.00;100027.44;5591116;31;34146;-72
2022/12/08 14:05:54;;;;;;;;;;;;;;;3.39;100.00;100024.66;5591124;31;34182;-72
2022/12/08 14:09:18;;;;;;;;;;;;;;;3.55;100.00;100023.34;5591052;31;34830;-72
2022/12/08 14:12:24;;;;;;;;;;;;;;;3.38;100.00;100030.87;5590889;31;34310;-71
2022/12/08 14:15:32;;;;;;;;;;;;;;;3.37;100.00;100023.97;5590946;31;34133;-71
2022/12/08 14:18:42;;;;;;;;;;;;;;;3.39;100.00;100024.66;5576818;31;34756;-71
2022/12/08 14:22:06;;;;;;;;;;;;;;;3.46;100.00;100020.56;5591197;31;34842;-71
2022/12/08 14:25:13;;;;;;;;;;;;;;;3.39;100.00;100021.19;5567042;31;34602;-71
2022/12/08 14:28:18;;;;;;;;;;;;;;;3.46;100.00;100024.97;5590736;31;34464;-71
2022/12/08 14:31:22;;;;;;;;;;;;;;;3.40;100.00;100028.94;5590651;31;34219;-72
2022/12/08 14:34:26;;;;;;;;;;;;;;;3.39;100.00;100014.16;5577015;31;34372;-70
2022/12/08 14:37:32;;;;;;;;;;;;;;;3.29;100.00;100023.78;5591041;31;34667;-72
2022/12/08 14:40:35;;;;;;;;;;;;;;;3.21;100.00;100025.38;5590917;31;34305;-71
2022/12/08 14:43:41;;;;;;;;;;;;;;;3.22;100.00;100027.88;5590764;31;34959;-71
2022/12/08 14:47:05;;;;;;;;;;;;;;;3.21;100.00;100017.53;5590977;31;34907;-71
2022/12/08 14:50:29;;;;;;;;;;;;;;;3.11;100.00;100025.31;5590822;31;34849;-71
2022/12/08 14:53:36;;;;;;;;;;;;;;;3.25;100.00;100026.78;5576665;31;34737;-72
2022/12/08 14:56:52;;;;;;;;;;;;;;;3.10;100.00;100023.66;5589492;31;34584;-71
2022/12/08 15:00:05;;;;;;;;;;;;;;;3.00;100.00;100013.13;5577214;31;35009;-72
2022/12/08 15:03:11;;;;;;;;;;;;;;;3.00;100.00;100020.19;5590573;31;35016;-72
2022/12/08 15:06:14;;;;;;;;;;;;;;;2.99;100.00;100015.88;5576620;31;34295;-72
2022/12/08 15:09:29;;;;;;;;;;;;;;;2.93;100.00;100017.22;5590233;31;34312;-72
2022/12/08 15:12:33;;;;;;;;;;;;;;;2.96;100.00;100003.03;5590590;31;34808;-71
2022/12/08 15:15:47;;;;;;;;;;;;;;;2.97;100.00;100009.94;5576810;31;34534;-71
2022/12/08 15:19:03;;;;;;;;;;;;;;;2.89;100.00;100007.13;5576177;31;33933;-71
2022/12/08 15:22:20;;;;;;;;;;;;;;;2.86;100.00;99997.72;5576304;31;35689;-72
2022/12/08 15:25:25;;;;;;;;;;;;;;;2.84;100.00;100010.13;5589877;31;34426;-72
2022/12/08 15:28:31;;;;;;;;;;;;;;;2.94;100.00;100002.34;5576208;31;32917;-72
2022/12/08 15:31:36;;;;;;;;;;;;;;;2.98;100.00;100004.56;5576546;31;34523;-71
2022/12/08 15:34:42;;;;;;;;;;;;;;;2.98;100.00;100009.81;5589851;31;34278;-72
2022/12/08 15:37:48;;;;;;;;;;;;;;;2.94;100.00;100003.19;5589485;31;34542;-72
2022/12/08 15:40:54;;;;;;;;;;;;;;;2.87;100.00;99996.78;5576112;31;34944;-71
2022/12/08 15:43:58;;;;;;;;;;;;;;;2.86;100.00;99997.72;5589789;31;34878;-71
2022/12/08 15:47:02;;;;;;;;;;;;;;;2.88;100.00;99987.97;5589340;31;34462;-71
2022/12/08 15:50:06;;;;;;;;;;;;;;;2.88;100.00;99981.88;5589406;31;35069;-71
2022/12/08 15:53:10;;;;;;;;;;;;;;;2.86;100.00;99986.41;5589411;31;34884;-71
2022/12/08 15:56:18;;;;;;;;;;;;;;;2.86;100.00;99975.94;5589724;31;34322;-72
2022/12/08 15:59:32;;;;;;;;;;;;;;;2.89;100.00;99978.31;5589753;31;34861;-71
2022/12/08 16:02:35;;;;;;;;;;;;;;;2.96;100.00;99972.41;5589388;31;34568;-71
2022/12/08 16:06:00;;;;;;;;;;;;;;;2.90;100.00;99979.97;5589992;31;34845;-72
2022/12/08 16:09:25;;;;;;;;;;;;;;;2.86;100.00;99976.75;5589046;31;34819;-71
2022/12/08 16:16:16;;;;;;;;;;;;;;;2.89;100.00;99983.56;5575653;31;34737;-71